Time;durP1;ratioP1;P1;durP2;ratioP2;P2;SDS_P1;SDS_P2;PMS_P1;PMS_P2;Temp;Humidity;BMP_temperature;BMP_pressure;BME280_temperature;BME280_humidity;BME280_pressure;Samples;Min_cycle;Max_cycle;Signal;HPM_P1;HPM_P2
2022/05/12 00:00:23;;;;;;;3.50;1.50;;;;;;;14.43;76.55;101341.91;5087939;28;20625;-64
2022/05/12 00:02:48;;;;;;;3.28;1.30;;;;;;;14.36;76.59;101343.47;5090633;28;20066;-64
2022/05/12 00:05:14;;;;;;;5.10;1.65;;;;;;;14.33;76.62;101343.41;5088045;28;20537;-64
2022/05/12 00:07:41;;;;;;;5.57;1.52;;;;;;;14.32;76.84;101357.31;5088144;28;20157;-64
2022/05/12 00:10:08;;;;;;;2.05;1.25;;;;;;;14.20;77.07;101361.34;5088228;28;20022;-64
2022/05/12 00:12:34;;;;;;;3.88;1.40;;;;;;;14.08;77.46;101359.31;5087673;28;20012;-64
2022/05/12 00:14:59;;;;;;;6.25;1.90;;;;;;;14.06;77.00;101358.41;5088427;28;20024;-64
2022/05/12 00:17:25;;;;;;;5.43;1.70;;;;;;;14.02;77.07;101359.16;5087859;28;20278;-64
2022/05/12 00:19:50;;;;;;;4.68;1.77;;;;;;;13.97;77.27;101360.75;5087977;28;20028;-64
2022/05/12 00:22:15;;;;;;;4.00;1.67;;;;;;;13.90;77.34;101368.44;5088141;28;20024;-64
2022/05/12 00:24:41;;;;;;;5.28;1.40;;;;;;;13.83;77.80;101361.28;5087651;28;20020;-64
2022/05/12 00:27:06;;;;;;;2.97;1.23;;;;;;;13.76;78.46;101368.03;5090739;28;20076;-64
2022/05/12 00:29:32;;;;;;;5.10;1.60;;;;;;;13.73;78.40;101367.06;5087945;28;20460;-64
2022/05/12 00:31:58;;;;;;;2.67;1.17;;;;;;;13.68;78.33;101370.44;5088364;28;20535;-64
2022/05/12 00:34:23;;;;;;;6.25;1.50;;;;;;;13.60;78.80;101376.28;5088011;28;20044;-64
2022/05/12 00:36:49;;;;;;;3.65;1.50;;;;;;;13.56;78.56;101370.97;5087703;28;20027;-64
2022/05/12 00:39:14;;;;;;;4.68;1.60;;;;;;;13.48;79.16;101377.66;5087625;28;20028;-64
2022/05/12 00:41:41;;;;;;;4.78;1.55;;;;;;;13.42;79.22;101388.75;5087583;28;20028;-64
2022/05/12 00:44:09;;;;;;;2.35;1.33;;;;;;;13.37;79.19;101392.94;5087516;28;20059;-64
2022/05/12 00:46:38;;;;;;;2.90;1.67;;;;;;;13.31;79.26;101390.19;5087775;28;20024;-64
2022/05/12 00:49:34;;;;;;;6.20;1.55;;;;;;;13.18;80.33;101383.72;5103922;28;20008;-64
2022/05/12 00:52:19;;;;;;;4.13;1.77;;;;;;;13.11;80.50;101385.28;5085813;28;20026;-64
2022/05/12 00:54:49;;;;;;;3.50;1.35;;;;;;;13.07;80.16;101392.09;5109379;28;20134;-64
2022/05/12 00:57:20;;;;;;;5.45;1.55;;;;;;;12.99;81.54;101392.69;5109075;28;20059;-64
2022/05/12 00:59:45;;;;;;;3.92;1.20;;;;;;;12.90;81.69;101399.38;5110914;28;20055;-64
2022/05/12 01:02:14;;;;;;;4.95;1.90;;;;;;;12.80;82.08;101399.91;5112098;28;20111;-64
2022/05/12 01:04:41;;;;;;;5.80;1.42;;;;;;;12.76;82.56;101403.25;5108972;28;20393;-64
2022/05/12 01:07:07;;;;;;;3.22;1.55;;;;;;;12.66;82.81;101400.38;5111629;28;20033;-64
2022/05/12 01:09:33;;;;;;;3.00;1.23;;;;;;;12.56;83.07;101408.69;5111086;28;20887;-64
2022/05/12 01:11:58;;;;;;;3.22;1.30;;;;;;;12.48;83.72;101408.44;5108672;28;20024;-64
2022/05/12 01:14:24;;;;;;;3.95;1.20;;;;;;;12.41;83.91;101414.28;5112008;28;20085;-64
2022/05/12 01:16:59;;;;;;;4.20;1.50;;;;;;;12.30;84.52;101424.28;5111267;28;20030;-64
2022/05/12 01:19:33;;;;;;;3.40;1.20;;;;;;;12.21;84.85;101417.97;5110969;28;20384;-64
2022/05/12 01:22:00;;;;;;;3.13;1.20;;;;;;;12.17;85.87;101420.38;5110944;28;20023;-64
2022/05/12 01:24:34;;;;;;;3.53;1.35;;;;;;;12.16;85.93;101424.69;5111316;28;20023;-64
2022/05/12 01:27:18;;;;;;;5.03;1.20;;;;;;;12.10;85.89;101424.50;5110550;28;20035;-64
2022/05/12 01:29:45;;;;;;;4.88;1.80;;;;;;;12.03;86.37;101432.88;5110973;28;20028;-64
2022/05/12 01:32:10;;;;;;;2.88;1.20;;;;;;;11.96;86.56;101437.81;5110996;27;20031;-64
2022/05/12 01:34:36;;;;;;;3.30;1.25;;;;;;;11.89;87.41;101447.13;5110626;28;20459;-64
2022/05/12 01:37:01;;;;;;;3.53;1.20;;;;;;;11.83;87.71;101448.59;5108104;28;20031;-64
2022/05/12 01:39:26;;;;;;;3.13;1.30;;;;;;;11.72;87.32;101456.91;5110737;28;20020;-64
2022/05/12 01:41:52;;;;;;;4.60;1.40;;;;;;;11.65;88.31;101458.38;5110654;28;20031;-64
2022/05/12 01:44:17;;;;;;;5.57;1.88;;;;;;;11.60;89.22;101465.09;5110971;27;20050;-64
2022/05/12 01:46:42;;;;;;;4.00;1.85;;;;;;;11.55;88.59;101458.84;5110998;28;20085;-64
2022/05/12 01:49:08;;;;;;;5.07;1.67;;;;;;;11.51;89.63;101465.63;5110654;27;20023;-64
2022/05/12 01:51:35;;;;;;;3.75;1.25;;;;;;;11.45;89.96;101459.31;5107932;27;20028;-64
2022/05/12 01:54:00;;;;;;;3.45;1.40;;;;;;;11.43;90.41;101461.84;5110961;28;20046;-64
2022/05/12 01:56:26;;;;;;;3.60;1.55;;;;;;;11.39;90.92;101458.25;5110218;27;20023;-64
2022/05/12 01:58:51;;;;;;;6.50;1.90;;;;;;;11.37;90.86;101467.69;5110253;28;20043;-64
2022/05/12 02:01:17;;;;;;;5.57;1.83;;;;;;;11.34;91.17;101469.28;5109478;28;20455;-64
2022/05/12 02:03:42;;;;;;;6.97;1.88;;;;;;;11.29;91.21;101472.59;5110517;28;20532;-62
2022/05/12 02:06:07;;;;;;;6.97;1.63;;;;;;;11.27;91.57;101474.25;5110621;28;20475;-61
2022/05/12 02:08:33;;;;;;;5.18;1.80;;;;;;;11.25;91.73;101478.50;5110317;28;20038;-62
2022/05/12 02:10:58;;;;;;;4.95;2.10;;;;;;;11.23;92.01;101487.91;5096570;28;20059;-62
2022/05/12 02:13:27;;;;;;;8.02;2.25;;;;;;;11.21;93.07;101486.97;5090351;28;20077;-62
2022/05/12 02:15:56;;;;;;;7.38;1.80;;;;;;;11.18;92.59;101486.84;5090804;28;20063;-62
2022/05/12 02:18:22;;;;;;;4.25;1.75;;;;;;;11.14;92.75;101490.13;5089900;28;20039;-61
2022/05/12 02:20:47;;;;;;;3.35;1.67;;;;;;;11.13;93.59;101493.56;5089386;28;20028;-62
2022/05/12 02:23:13;;;;;;;7.15;2.45;;;;;;;11.11;93.32;101490.03;5089944;28;20039;-61
2022/05/12 02:25:38;;;;;;;5.95;2.50;;;;;;;11.09;93.87;101504.63;5089461;28;20472;-62
2022/05/12 02:28:04;;;;;;;6.85;2.03;;;;;;;11.08;94.00;101506.31;5089828;28;20092;-62
2022/05/12 02:30:31;;;;;;;7.28;2.40;;;;;;;11.05;94.72;101506.22;5089460;28;20052;-61
2022/05/12 02:32:57;;;;;;;5.50;2.17;;;;;;;11.02;94.75;101507.00;5092476;28;20084;-62
2022/05/12 02:35:23;;;;;;;7.30;2.50;;;;;;;11.01;95.61;101509.53;5089321;28;20438;-62
2022/05/12 02:37:49;;;;;;;6.97;2.10;;;;;;;10.99;95.78;101511.16;5091827;28;20032;-62
2022/05/12 02:40:17;;;;;;;8.75;2.58;;;;;;;11.00;95.72;101519.00;5089837;28;20038;-62
2022/05/12 02:42:43;;;;;;;6.38;2.08;;;;;;;11.00;95.73;101515.50;5089374;28;20032;-61
2022/05/12 02:45:08;;;;;;;6.80;2.00;;;;;;;10.98;95.49;101523.22;5089498;28;20028;-62
2022/05/12 02:47:34;;;;;;;7.63;2.60;;;;;;;10.94;95.90;101516.13;5089471;28;20015;-61
2022/05/12 02:49:59;;;;;;;7.07;2.97;;;;;;;10.92;96.36;101522.97;5089043;28;20028;-62
2022/05/12 02:52:25;;;;;;;7.05;2.42;;;;;;;10.92;96.44;101528.16;5089251;28;20024;-62
2022/05/12 02:54:50;;;;;;;6.80;2.25;;;;;;;10.93;97.39;101532.53;5088972;28;20385;-61
2022/05/12 02:57:16;;;;;;;10.40;2.38;;;;;;;10.91;96.84;101529.00;5087918;28;20036;-62
2022/05/12 02:59:41;;;;;;;6.50;2.30;;;;;;;10.89;96.98;101531.53;5088745;28;20024;-62
2022/05/12 03:02:07;;;;;;;8.98;2.90;;;;;;;10.86;97.50;101525.31;5089413;28;20024;-61
2022/05/12 03:04:33;;;;;;;12.10;2.92;;;;;;;10.84;98.41;101529.56;5092130;28;20048;-61
2022/05/12 03:06:58;;;;;;;8.45;3.22;;;;;;;10.84;97.81;101526.97;5088719;28;20023;-62
2022/05/12 03:09:24;;;;;;;9.07;2.95;;;;;;;10.85;98.59;101533.94;5091963;28;20012;-62
2022/05/12 03:11:49;;;;;;;10.90;3.55;;;;;;;10.87;98.08;101537.44;5091744;28;20095;-61
2022/05/12 03:14:14;;;;;;;9.82;3.47;;;;;;;10.87;98.24;101538.34;5089259;28;20047;-61
2022/05/12 03:16:40;;;;;;;9.25;3.60;;;;;;;10.87;98.39;101537.44;5088270;28;20016;-62
2022/05/12 03:19:05;;;;;;;8.52;3.65;;;;;;;10.84;99.09;101539.91;5091539;28;20027;-61
2022/05/12 03:21:31;;;;;;;9.90;4.15;;;;;;;10.82;99.25;101534.69;5088474;28;20024;-61
2022/05/12 03:23:57;;;;;;;12.63;6.10;;;;;;;10.84;99.84;101550.28;5088693;28;20012;-62
2022/05/12 03:26:22;;;;;;;12.27;5.35;;;;;;;10.83;100.00;101545.94;5087184;28;20464;-61
2022/05/12 03:28:47;;;;;;;15.68;5.85;;;;;;;10.79;100.00;101544.94;5087287;28;20050;-61
2022/05/12 03:31:13;;;;;;;12.57;5.03;;;;;;;10.76;100.00;101545.66;5087146;28;20024;-62
2022/05/12 03:33:39;;;;;;;14.27;6.38;;;;;;;10.72;100.00;101543.75;5087315;28;20464;-62
2022/05/12 03:36:06;;;;;;;13.93;6.20;;;;;;;10.68;100.00;101553.13;5104680;28;20055;-62
2022/05/12 03:38:32;;;;;;;14.82;6.22;;;;;;;10.67;100.00;101553.03;5103657;28;20058;-62
2022/05/12 03:40:57;;;;;;;13.55;6.70;;;;;;;10.64;100.00;101560.69;5105553;28;20047;-62
2022/05/12 03:46:07;;;;;;;14.52;6.55;;;;;;;10.63;100.00;101577.09;5106284;28;20043;-62
2022/05/12 03:48:36;;;;;;;17.08;7.35;;;;;;;10.63;100.00;101579.66;5106644;28;20019;-62
2022/05/12 03:51:02;;;;;;;17.50;8.00;;;;;;;10.60;100.00;101576.91;5105491;28;20102;-62
2022/05/12 03:53:28;;;;;;;15.07;7.55;;;;;;;10.60;100.00;101579.50;5088685;28;20391;-61
2022/05/12 03:55:54;;;;;;;15.23;7.57;;;;;;;10.55;100.00;101577.63;5086362;28;20054;-61
2022/05/12 03:58:19;;;;;;;18.13;9.57;;;;;;;10.57;100.00;101581.19;5086686;28;20162;-62
2022/05/12 04:00:44;;;;;;;21.65;9.13;;;;;;;10.62;100.00;101588.25;5086911;28;20108;-61
2022/05/12 04:03:10;;;;;;;18.58;8.52;;;;;;;10.64;100.00;101589.19;5085608;28;20050;-61
2022/05/12 04:05:35;;;;;;;19.08;9.80;;;;;;;10.65;100.00;101593.59;5086162;28;20032;-61
2022/05/12 04:08:00;;;;;;;19.42;8.95;;;;;;;10.69;100.00;101595.47;5086618;28;20387;-61
2022/05/12 04:10:27;;;;;;;22.15;9.55;;;;;;;10.69;100.00;101595.47;5086860;28;20201;-62
2022/05/12 04:12:53;;;;;;;18.33;10.15;;;;;;;10.70;100.00;101607.63;5086939;28;20164;-61
2022/05/12 04:15:20;;;;;;;16.88;10.13;;;;;;;10.71;100.00;101601.63;5086659;28;20479;-62
2022/05/12 04:17:55;;;;;;;17.02;10.27;;;;;;;10.69;100.00;101608.44;5086548;28;20078;-62
2022/05/12 04:20:20;;;;;;;23.05;12.93;;;;;;;10.70;100.00;101612.81;5086705;28;20422;-61
2022/05/12 04:22:45;;;;;;;22.10;13.65;;;;;;;10.69;100.00;101616.22;5086454;28;20106;-62
2022/05/12 04:25:11;;;;;;;24.17;13.98;;;;;;;10.72;100.00;101620.66;5090754;28;20037;-61
2022/05/12 04:27:41;;;;;;;22.75;13.32;;;;;;;10.71;100.00;101608.50;5090782;28;20102;-61
2022/05/12 04:30:09;;;;;;;21.45;14.55;;;;;;;10.68;100.00;101614.44;5090838;28;20024;-62
2022/05/12 04:32:34;;;;;;;22.55;15.02;;;;;;;10.67;100.00;101625.63;5090356;28;20388;-61
2022/05/12 04:35:15;;;;;;;23.20;15.10;;;;;;;10.68;100.00;101627.41;5108937;28;20035;-62
2022/05/12 04:37:45;;;;;;;23.13;13.90;;;;;;;10.71;100.00;101629.22;5090894;28;20107;-62
2022/05/12 04:40:21;;;;;;;21.63;14.75;;;;;;;10.72;100.00;101637.06;5090600;28;20024;-62
2022/05/12 04:42:47;;;;;;;26.25;14.73;;;;;;;10.71;100.00;101640.50;5108397;28;20062;-62
2022/05/12 04:45:13;;;;;;;27.48;16.85;;;;;;;10.72;100.00;101637.06;5108181;28;20023;-62
2022/05/12 04:47:40;;;;;;;30.27;15.57;;;;;;;10.77;100.00;101637.31;5110690;28;20028;-61
2022/05/12 04:50:07;;;;;;;26.17;16.10;;;;;;;10.81;100.00;101645.25;5110830;28;20022;-61
2022/05/12 04:52:33;;;;;;;27.17;16.95;;;;;;;10.87;100.00;101641.16;5110364;27;20114;-61
2022/05/12 04:54:58;;;;;;;23.27;16.88;;;;;;;10.92;100.00;101642.25;5110359;28;20102;-62
2022/05/12 04:57:24;;;;;;;25.83;15.80;;;;;;;11.00;100.00;101648.69;5110169;28;20056;-62
2022/05/12 04:59:51;;;;;;;27.92;17.58;;;;;;;11.04;100.00;101645.38;5110427;28;20471;-61
2022/05/12 05:02:17;;;;;;;27.95;17.58;;;;;;;11.09;100.00;101657.66;5110636;28;20756;-61
2022/05/12 05:04:43;;;;;;;27.27;17.52;;;;;;;11.10;100.00;101655.13;5109986;28;20357;-62
2022/05/12 05:07:10;;;;;;;26.50;17.58;;;;;;;11.17;100.00;101651.97;5102420;28;20031;-62
2022/05/12 05:09:36;;;;;;;27.02;18.13;;;;;;;11.24;100.00;101662.63;5090351;28;20024;-62
2022/05/12 05:12:01;;;;;;;26.73;18.15;;;;;;;11.28;100.00;101667.09;5091151;28;20043;-61
2022/05/12 05:14:27;;;;;;;25.33;18.33;;;;;;;11.34;100.00;101674.28;5090970;28;20986;-62
2022/05/12 05:16:52;;;;;;;30.08;17.60;;;;;;;11.42;100.00;101678.09;5089321;28;20016;-62
2022/05/12 05:19:17;;;;;;;29.27;18.02;;;;;;;11.56;100.00;101685.56;5089384;28;20043;-62
2022/05/12 05:21:43;;;;;;;27.80;18.45;;;;;;;11.64;100.00;101684.16;5092684;28;20024;-62
2022/05/12 05:24:08;;;;;;;28.55;18.27;;;;;;;11.72;100.00;101676.69;5089848;28;20138;-60
2022/05/12 05:26:34;;;;;;;25.98;18.42;;;;;;;11.79;100.00;101683.00;5090143;28;20039;-62
2022/05/12 05:28:59;;;;;;;25.30;16.75;;;;;;;11.86;100.00;101692.81;5089577;28;20361;-62
2022/05/12 05:31:24;;;;;;;27.33;18.65;;;;;;;11.91;100.00;101691.28;5091075;28;20128;-62
2022/05/12 05:33:49;;;;;;;26.83;19.83;;;;;;;11.99;100.00;101700.28;5089269;28;20072;-63
2022/05/12 05:36:15;;;;;;;28.27;19.50;;;;;;;12.03;100.00;101698.72;5089524;28;20721;-62
2022/05/12 05:38:40;;;;;;;25.52;20.15;;;;;;;12.10;100.00;101699.88;5107353;28;20028;-62
2022/05/12 05:41:05;;;;;;;29.10;20.50;;;;;;;12.20;100.00;101707.19;5109061;28;20063;-61
2022/05/12 05:43:31;;;;;;;27.80;18.92;;;;;;;12.33;100.00;101713.75;5110485;28;20076;-62
2022/05/12 05:45:56;;;;;;;23.50;18.25;;;;;;;12.45;100.00;101715.94;5110746;28;20027;-62
2022/05/12 05:48:21;;;;;;;26.45;17.58;;;;;;;12.59;100.00;101726.84;5098738;28;20365;-62
2022/05/12 05:53:36;;;;;;;25.15;17.70;;;;;;;12.87;100.00;101736.50;5089966;28;20200;-62
2022/05/12 05:56:03;;;;;;;;;;;;;;;12.94;100.00;101739.41;5092937;28;20077;-62
2022/05/12 05:58:28;;;;;;;21.63;15.93;;;;;;;13.08;100.00;101733.81;5089629;28;20462;-62
2022/05/12 06:00:54;;;;;;;24.88;17.17;;;;;;;13.23;100.00;101746.50;5088250;28;20107;-62
2022/05/12 06:03:20;;;;;;;21.38;16.23;;;;;;;13.29;100.00;101751.03;5091620;28;20397;-62
2022/05/12 06:05:46;;;;;;;29.05;18.98;;;;;;;13.34;100.00;101754.69;5090255;28;20043;-61
2022/05/12 06:08:14;;;;;;;25.02;17.92;;;;;;;13.40;100.00;101757.47;5090113;28;20028;-62
2022/05/12 06:10:41;;;;;;;26.83;18.00;;;;;;;13.53;100.00;101768.34;5090495;28;20024;-61
2022/05/12 06:13:06;;;;;;;24.65;17.85;;;;;;;13.63;99.45;101757.44;5089637;28;20415;-62
2022/05/12 06:15:32;;;;;;;22.02;16.02;;;;;;;13.73;99.17;101761.22;5090544;28;20027;-62
2022/05/12 06:17:57;;;;;;;27.25;17.65;;;;;;;13.87;98.22;101766.91;5090149;28;20040;-62
2022/05/12 06:20:23;;;;;;;21.92;18.70;;;;;;;13.80;98.09;101765.81;5090226;28;20035;-62
2022/05/12 06:22:49;;;;;;;25.05;17.77;;;;;;;13.91;98.38;101771.38;5089370;28;20092;-61
2022/05/12 06:25:16;;;;;;;21.27;16.02;;;;;;;14.04;96.78;101779.59;5089528;28;20033;-62
2022/05/12 06:27:43;;;;;;;23.70;16.17;;;;;;;14.07;96.87;101784.91;5089349;28;20076;-62
2022/05/12 06:30:11;;;;;;;19.13;14.90;;;;;;;14.06;94.10;101777.94;5091475;27;20019;-63
2022/05/12 06:32:38;;;;;;;25.70;15.70;;;;;;;14.03;94.61;101783.06;5111987;27;20073;-63
2022/05/12 06:35:03;;;;;;;23.70;16.55;;;;;;;14.02;95.45;101787.38;5111640;27;20035;-63
2022/05/12 06:37:29;;;;;;;21.38;16.75;;;;;;;14.08;96.47;101785.81;5111917;27;20478;-62
2022/05/12 06:39:54;;;;;;;22.58;15.57;;;;;;;14.27;94.64;101776.84;5106345;27;20024;-61
2022/05/12 06:42:19;;;;;;;22.02;15.00;;;;;;;14.40;93.30;101784.22;5100411;27;20024;-62
2022/05/12 06:44:45;;;;;;;19.75;15.30;;;;;;;14.51;93.58;101791.50;5105890;27;20019;-62
2022/05/12 06:47:13;;;;;;;14.70;12.43;;;;;;;14.70;91.46;101802.47;5096437;27;20106;-62
2022/05/12 06:49:39;;;;;;;19.77;14.68;;;;;;;14.76;89.45;101802.66;5085870;27;20062;-62
2022/05/12 06:52:06;;;;;;;23.88;15.93;;;;;;;14.71;89.36;101805.16;5095348;27;20053;-63
2022/05/12 06:54:36;;;;;;;18.40;13.85;;;;;;;14.71;88.75;101804.25;5094109;28;20426;-62
2022/05/12 06:57:03;;;;;;;18.13;12.98;;;;;;;14.71;88.43;101804.25;5099588;27;20027;-62
2022/05/12 06:59:28;;;;;;;20.20;14.60;;;;;;;14.68;87.85;101809.38;5096255;27;20081;-62
2022/05/12 07:01:53;;;;;;;16.75;12.43;;;;;;;14.69;87.75;101809.44;5080350;27;20031;-62
2022/05/12 07:04:19;;;;;;;17.27;14.52;;;;;;;14.80;87.56;101809.75;5095019;28;20051;-63
2022/05/12 07:06:45;;;;;;;16.95;13.05;;;;;;;14.90;85.67;101800.50;5091392;27;20537;-63
2022/05/12 07:09:10;;;;;;;16.75;13.55;;;;;;;15.06;85.52;101817.50;5109050;27;20474;-62
2022/05/12 07:11:35;;;;;;;15.70;12.45;;;;;;;15.21;84.30;101821.38;5093820;27;20067;-61
2022/05/12 07:14:01;;;;;;;18.52;13.27;;;;;;;15.39;83.26;101820.13;5091451;27;20015;-62
2022/05/12 07:16:26;;;;;;;16.42;12.27;;;;;;;15.53;81.06;101813.56;5088116;27;20476;-62
2022/05/12 07:18:52;;;;;;;15.30;12.60;;;;;;;15.81;80.15;101809.03;5089973;28;20023;-62
2022/05/12 07:26:47;;;;;;;20.48;13.57;;;;;;;16.46;77.75;101821.94;5087714;27;20067;-63
2022/05/12 07:29:17;;;;;;;15.10;13.50;;;;;;;16.43;77.72;101828.00;5087796;27;20019;-63
2022/05/12 07:31:42;;;;;;;19.90;14.30;;;;;;;16.27;76.62;101829.38;5088278;27;20028;-62
2022/05/12 07:34:09;;;;;;;17.60;13.93;;;;;;;16.15;75.95;101829.09;5100948;27;20776;-62
2022/05/12 07:36:37;;;;;;;18.30;13.82;;;;;;;15.99;76.22;101836.53;5102695;27;20457;-63
2022/05/12 07:39:05;;;;;;;15.23;13.15;;;;;;;16.00;77.86;101840.91;5100346;27;20031;-63
2022/05/12 07:41:31;;;;;;;13.23;11.20;;;;;;;16.19;76.54;101838.78;5094870;28;20046;-63
2022/05/12 07:43:57;;;;;;;12.63;10.25;;;;;;;16.10;73.25;101846.38;5094791;27;20032;-62
2022/05/12 07:46:25;;;;;;;12.80;10.18;;;;;;;16.26;72.46;101838.06;5086770;28;20101;-62
2022/05/12 07:48:51;;;;;;;12.80;11.20;;;;;;;16.24;72.99;101836.25;5100083;28;20023;-63
2022/05/12 07:51:18;;;;;;;14.40;9.85;;;;;;;16.32;71.43;101835.59;5106636;28;20110;-62
2022/05/12 07:53:47;;;;;;;10.38;8.73;;;;;;;16.49;69.53;101839.47;5106157;28;20036;-63
2022/05/12 07:56:13;;;;;;;9.13;7.40;;;;;;;17.01;68.65;101849.31;5106957;28;20031;-62
2022/05/12 07:58:38;;;;;;;12.35;8.02;;;;;;;17.35;67.79;101849.16;5104960;28;20316;-64
2022/05/12 08:01:05;;;;;;;10.05;8.15;;;;;;;17.26;66.17;101845.53;5102788;28;20046;-62
2022/05/12 08:03:30;;;;;;;11.90;9.10;;;;;;;17.18;66.09;101849.69;5102856;28;20102;-62
2022/05/12 08:05:58;;;;;;;10.60;7.55;;;;;;;17.23;66.67;101850.69;5105714;28;20420;-62
2022/05/12 08:08:23;;;;;;;13.27;8.75;;;;;;;17.37;64.20;101857.94;5105307;28;20028;-62
2022/05/12 08:10:48;;;;;;;11.95;8.88;;;;;;;17.65;63.92;101858.47;5104798;28;20194;-62
2022/05/12 08:13:17;;;;;;;14.00;9.48;;;;;;;17.82;63.22;101855.28;5105365;28;20078;-62
2022/05/12 08:15:44;;;;;;;11.73;8.50;;;;;;;17.97;63.03;101859.91;5106216;28;20442;-62
2022/05/12 08:18:10;;;;;;;11.45;9.02;;;;;;;18.51;61.92;101859.91;5105152;28;20106;-62
2022/05/12 08:20:35;;;;;;;10.23;7.45;;;;;;;18.88;59.42;101856.94;5105729;28;20156;-63
2022/05/12 08:23:01;;;;;;;8.60;6.38;;;;;;;19.20;55.33;101863.50;5105180;28;20459;-62
2022/05/12 08:25:26;;;;;;;7.28;6.53;;;;;;;19.36;55.15;101855.78;5105432;28;20011;-63
2022/05/12 08:27:51;;;;;;;9.05;6.85;;;;;;;19.70;53.66;101857.91;5102344;28;20023;-63
2022/05/12 08:30:17;;;;;;;10.23;7.25;;;;;;;19.82;53.12;101862.41;5105743;28;20038;-63
2022/05/12 08:32:44;;;;;;;10.20;6.57;;;;;;;20.08;53.31;101865.28;5106749;28;20024;-63
2022/05/12 08:35:09;;;;;;;8.82;6.03;;;;;;;20.32;51.57;101858.47;5107033;28;20515;-63
2022/05/12 08:37:35;;;;;;;7.72;5.57;;;;;;;20.64;51.94;101849.91;5106394;28;20030;-63
2022/05/12 08:40:02;;;;;;;9.35;7.57;;;;;;;20.82;50.46;101858.78;5107179;28;20030;-63
2022/05/12 08:42:36;;;;;;;7.28;5.82;;;;;;;21.04;50.31;101844.84;5106986;28;20026;-63
2022/05/12 08:45:07;;;;;;;6.05;5.45;;;;;;;21.26;50.41;101853.72;5107055;28;20050;-63
2022/05/12 08:47:37;;;;;;;8.27;5.30;;;;;;;21.23;48.23;101853.69;5106666;28;20031;-63
2022/05/12 08:50:03;;;;;;;11.48;6.78;;;;;;;21.40;48.80;101850.25;5107458;28;20020;-63
2022/05/12 08:52:44;;;;;;;7.65;6.85;;;;;;;21.47;47.77;101854.66;5106713;28;20019;-63
2022/05/12 08:55:10;;;;;;;;;;;;;;;21.45;48.58;101859.03;5104667;28;20027;-63
2022/05/12 08:57:40;;;;;;;6.72;4.45;;;;;;;21.09;45.28;101856.28;5106820;28;20903;-63
2022/05/12 09:00:11;;;;;;;6.78;4.70;;;;;;;20.98;46.03;101859.75;5106043;28;20020;-63
2022/05/12 09:02:49;;;;;;;6.95;5.32;;;;;;;20.65;47.73;101869.22;5106596;28;20444;-63
2022/05/12 09:05:18;;;;;;;7.32;4.63;;;;;;;20.60;48.26;101861.28;5106513;28;20036;-63
2022/05/12 09:07:49;;;;;;;6.28;4.72;;;;;;;20.42;47.51;101872.56;5104174;28;20051;-63
2022/05/12 09:10:36;;;;;;;6.82;4.45;;;;;;;20.25;48.94;101872.44;5108625;28;20527;-64
2022/05/12 09:13:11;;;;;;;6.45;3.13;;;;;;;19.86;45.85;101872.94;5110595;28;20058;-63
2022/05/12 09:15:44;;;;;;;4.38;2.70;;;;;;;19.61;47.99;101869.22;5109969;28;20608;-63
2022/05/12 09:18:17;;;;;;;4.13;2.72;;;;;;;19.64;48.86;101870.13;5109656;28;20452;-63
2022/05/12 09:20:43;;;;;;;8.25;4.03;;;;;;;19.56;47.54;101874.41;5110246;28;20312;-62
2022/05/12 09:23:08;;;;;;;7.20;3.75;;;;;;;19.33;47.56;101875.03;5110560;28;20401;-63
2022/05/12 09:25:36;;;;;;;7.35;4.50;;;;;;;19.24;49.32;101877.56;5109995;28;20038;-63
2022/05/12 09:28:34;;;;;;;6.95;5.47;;;;;;;19.01;49.49;101884.25;5110360;28;20016;-63
2022/05/12 09:31:18;;;;;;;6.60;4.30;;;;;;;19.17;49.64;101879.22;5109589;28;20020;-63
2022/05/12 09:33:47;;;;;;;6.63;4.47;;;;;;;19.61;49.56;101875.34;5109417;28;20483;-63
2022/05/12 09:36:28;;;;;;;6.35;3.80;;;;;;;20.15;49.37;101860.97;5109976;28;20039;-63
2022/05/12 09:38:55;;;;;;;5.38;3.92;;;;;;;20.62;46.97;101867.44;5108357;27;20435;-63
2022/05/12 09:41:33;;;;;;;6.53;5.03;;;;;;;20.84;43.77;101864.94;5108912;28;20047;-63
2022/05/12 09:44:15;;;;;;;6.88;4.22;;;;;;;20.80;45.62;101867.53;5109055;28;20031;-63
2022/05/12 09:46:41;;;;;;;5.05;3.55;;;;;;;20.98;45.55;101864.13;5109927;28;20020;-63
2022/05/12 09:49:21;;;;;;;7.35;3.00;;;;;;;21.07;44.13;101868.56;5109728;28;20037;-63
2022/05/12 09:51:46;;;;;;;3.40;2.08;;;;;;;20.71;41.43;101866.63;5109478;28;20030;-63
2022/05/12 09:54:23;;;;;;;5.78;3.03;;;;;;;20.31;42.23;101866.38;5109475;28;20015;-63
2022/05/12 09:57:24;;;;;;;4.03;3.17;;;;;;;20.06;43.64;101861.75;5108786;28;20272;-63
2022/05/12 09:59:56;;;;;;;4.47;2.92;;;;;;;19.85;44.16;101865.06;5108821;28;20036;-63
2022/05/12 10:08:26;;;;;;;3.85;3.08;;;;;;;19.66;44.11;101857.00;5108579;28;20077;-63
2022/05/12 10:11:04;;;;;;;5.97;3.70;;;;;;;19.79;43.16;101857.97;5108520;28;20042;-63
2022/05/12 10:13:42;;;;;;;6.45;3.45;;;;;;;20.12;44.35;101856.56;5108785;28;20026;-63
2022/05/12 10:16:08;;;;;;;6.40;2.05;;;;;;;20.47;43.29;101851.56;5108863;28;20511;-63
2022/05/12 10:18:40;;;;;;;4.15;2.10;;;;;;;20.72;41.50;101862.25;5108781;28;20011;-64
2022/05/12 10:21:28;;;;;;;4.53;2.63;;;;;;;20.71;41.10;101861.34;5107522;28;20344;-63
2022/05/12 10:24:02;;;;;;;4.53;2.75;;;;;;;20.73;40.65;101856.09;5108579;28;20088;-63
2022/05/12 10:26:42;;;;;;;5.07;2.38;;;;;;;20.87;41.63;101857.03;5108705;28;20072;-63
2022/05/12 10:29:29;;;;;;;5.38;2.35;;;;;;;21.10;41.90;101856.28;5108314;28;20034;-63
2022/05/12 10:32:09;;;;;;;4.72;2.13;;;;;;;21.04;38.49;101865.94;5108934;27;20090;-63
2022/05/12 10:35:16;;;;;;;5.67;2.20;;;;;;;20.91;41.16;101859.69;5107826;28;20050;-63
2022/05/12 10:37:53;;;;;;;5.35;2.22;;;;;;;20.59;40.72;101864.81;5108297;28;20273;-63
2022/05/12 10:40:29;;;;;;;5.88;2.92;;;;;;;20.35;41.93;101868.13;5108709;28;20490;-63
2022/05/12 10:43:02;;;;;;;4.75;2.60;;;;;;;20.16;41.00;101870.63;5108884;28;20019;-63
2022/05/12 10:45:51;;;;;;;7.32;2.25;;;;;;;19.89;40.70;101857.22;5108534;28;20467;-63
2022/05/12 10:48:22;;;;;;;4.40;2.55;;;;;;;19.84;42.82;101856.28;5108763;28;20371;-63
2022/05/12 10:51:01;;;;;;;5.10;2.80;;;;;;;20.05;42.99;101860.00;5108305;28;20292;-63
2022/05/12 10:53:48;;;;;;;5.95;2.88;;;;;;;20.24;41.80;101849.63;5108192;28;20383;-63
2022/05/12 10:56:28;;;;;;;4.07;2.75;;;;;;;20.06;40.28;101850.38;5108706;28;20027;-63
2022/05/12 10:59:15;;;;;;;6.72;2.40;;;;;;;19.97;41.13;101851.16;5108447;28;20466;-63
2022/05/12 11:01:48;;;;;;;6.28;2.50;;;;;;;19.76;41.92;101858.84;5108100;28;20093;-63
2022/05/12 11:04:21;;;;;;;4.03;2.60;;;;;;;19.53;41.91;101862.13;5108153;28;20119;-63
2022/05/12 11:06:53;;;;;;;6.70;2.33;;;;;;;19.40;42.78;101849.72;5105190;28;20449;-63
2022/05/12 11:09:24;;;;;;;4.60;2.38;;;;;;;19.58;42.93;101856.91;5107844;28;20474;-63
2022/05/12 11:11:52;;;;;;;5.63;2.47;;;;;;;19.87;42.57;101850.19;5108032;27;20026;-63
2022/05/12 11:14:30;;;;;;;4.07;1.90;;;;;;;19.97;40.42;101845.91;5104903;28;20451;-63
2022/05/12 11:16:56;;;;;;;7.93;2.13;;;;;;;20.09;41.35;101853.91;5108016;28;20016;-63
2022/05/12 11:19:24;;;;;;;3.85;2.30;;;;;;;20.34;43.31;101840.94;5099030;28;20028;-63
2022/05/12 11:22:20;;;;;;;5.85;2.83;;;;;;;20.39;41.49;101844.50;5091716;28;20024;-63
2022/05/12 11:24:49;;;;;;;4.78;2.70;;;;;;;20.76;41.71;101843.81;5092452;28;20024;-64
2022/05/12 11:27:46;;;;;;;4.22;2.08;;;;;;;20.94;40.83;101850.06;5087577;28;20172;-63
2022/05/12 11:30:31;;;;;;;4.47;2.00;;;;;;;20.95;39.67;101843.06;5098200;28;20020;-64
2022/05/12 11:33:18;;;;;;;5.35;2.70;;;;;;;21.01;41.06;101840.47;5094987;28;20012;-64
2022/05/12 11:35:48;;;;;;;4.40;2.25;;;;;;;20.97;39.23;101842.22;5088143;28;20431;-63
2022/05/12 11:38:39;;;;;;;6.47;2.40;;;;;;;20.90;38.84;101831.59;5087237;28;20114;-63
2022/05/12 11:41:19;;;;;;;6.07;2.10;;;;;;;20.98;38.76;101833.41;5106460;28;20039;-64